sensor_id;sensor_type;location;lat;lon;timestamp;P1;durP1;ratioP1;P2;durP2;ratioP2
17595;SDS011;8916;47.086;15.920;2024-02-16T00:00:57;11.90;;;6.38;;
17595;SDS011;8916;47.086;15.920;2024-02-16T00:03:28;11.35;;;5.63;;
17595;SDS011;8916;47.086;15.920;2024-02-16T00:05:58;11.15;;;5.60;;
17595;SDS011;8916;47.086;15.920;2024-02-16T00:08:27;15.77;;;5.53;;
17595;SDS011;8916;47.086;15.920;2024-02-16T00:10:56;10.88;;;5.35;;
17595;SDS011;8916;47.086;15.920;2024-02-16T00:13:26;11.50;;;5.07;;
17595;SDS011;8916;47.086;15.920;2024-02-16T00:15:55;13.32;;;6.00;;
17595;SDS011;8916;47.086;15.920;2024-02-16T00:18:24;12.15;;;6.07;;
17595;SDS011;8916;47.086;15.920;2024-02-16T00:20:55;14.43;;;6.30;;
17595;SDS011;8916;47.086;15.920;2024-02-16T00:23:24;13.50;;;6.05;;
17595;SDS011;8916;47.086;15.920;2024-02-16T00:25:53;14.00;;;6.95;;
17595;SDS011;8916;47.086;15.920;2024-02-16T00:28:22;14.75;;;7.20;;
17595;SDS011;8916;47.086;15.920;2024-02-16T00:30:51;19.17;;;6.40;;
17595;SDS011;8916;47.086;15.920;2024-02-16T00:33:20;12.13;;;6.00;;
17595;SDS011;8916;47.086;15.920;2024-02-16T00:35:49;18.80;;;6.30;;
17595;SDS011;8916;47.086;15.920;2024-02-16T00:38:21;14.68;;;5.72;;
17595;SDS011;8916;47.086;15.920;2024-02-16T00:40:50;14.20;;;6.00;;
17595;SDS011;8916;47.086;15.920;2024-02-16T00:43:19;17.27;;;6.68;;
17595;SDS011;8916;47.086;15.920;2024-02-16T00:45:49;12.95;;;6.60;;
17595;SDS011;8916;47.086;15.920;2024-02-16T00:48:18;14.25;;;7.28;;
17595;SDS011;8916;47.086;15.920;2024-02-16T00:50:47;18.92;;;6.75;;
17595;SDS011;8916;47.086;15.920;2024-02-16T00:53:16;17.38;;;7.47;;
17595;SDS011;8916;47.086;15.920;2024-02-16T00:55:48;21.67;;;8.38;;
17595;SDS011;8916;47.086;15.920;2024-02-16T00:58:17;18.13;;;7.60;;
17595;SDS011;8916;47.086;15.920;2024-02-16T01:00:46;21.95;;;7.97;;
17595;SDS011;8916;47.086;15.920;2024-02-16T01:03:16;22.48;;;7.88;;
17595;SDS011;8916;47.086;15.920;2024-02-16T01:05:45;20.20;;;7.68;;
17595;SDS011;8916;47.086;15.920;2024-02-16T01:08:14;17.75;;;6.93;;
17595;SDS011;8916;47.086;15.920;2024-02-16T01:10:43;13.15;;;6.25;;
17595;SDS011;8916;47.086;15.920;2024-02-16T01:13:15;11.15;;;5.60;;
17595;SDS011;8916;47.086;15.920;2024-02-16T01:15:44;12.73;;;5.88;;
17595;SDS011;8916;47.086;15.920;2024-02-16T01:18:13;11.60;;;5.15;;
17595;SDS011;8916;47.086;15.920;2024-02-16T01:20:42;15.40;;;6.30;;
17595;SDS011;8916;47.086;15.920;2024-02-16T01:23:11;11.65;;;5.63;;
17595;SDS011;8916;47.086;15.920;2024-02-16T01:25:40;16.00;;;6.35;;
17595;SDS011;8916;47.086;15.920;2024-02-16T01:28:09;18.05;;;8.00;;
17595;SDS011;8916;47.086;15.920;2024-02-16T01:30:40;25.00;;;8.27;;
17595;SDS011;8916;47.086;15.920;2024-02-16T01:33:10;20.15;;;7.80;;
17595;SDS011;8916;47.086;15.920;2024-02-16T01:35:39;16.20;;;7.32;;
17595;SDS011;8916;47.086;15.920;2024-02-16T01:38:08;16.88;;;7.00;;
17595;SDS011;8916;47.086;15.920;2024-02-16T01:40:37;17.67;;;6.93;;
17595;SDS011;8916;47.086;15.920;2024-02-16T01:43:06;14.20;;;6.80;;
17595;SDS011;8916;47.086;15.920;2024-02-16T01:45:35;13.27;;;6.07;;
17595;SDS011;8916;47.086;15.920;2024-02-16T01:48:06;15.98;;;6.38;;
17595;SDS011;8916;47.086;15.920;2024-02-16T01:50:36;18.38;;;6.78;;
17595;SDS011;8916;47.086;15.920;2024-02-16T01:53:05;14.68;;;6.97;;
17595;SDS011;8916;47.086;15.920;2024-02-16T01:55:34;14.13;;;5.80;;
17595;SDS011;8916;47.086;15.920;2024-02-16T01:58:03;16.50;;;7.03;;
17595;SDS011;8916;47.086;15.920;2024-02-16T02:00:34;18.63;;;6.90;;
17595;SDS011;8916;47.086;15.920;2024-02-16T02:03:03;18.33;;;7.35;;
17595;SDS011;8916;47.086;15.920;2024-02-16T02:05:34;16.95;;;7.22;;
17595;SDS011;8916;47.086;15.920;2024-02-16T02:08:13;15.48;;;6.85;;
17595;SDS011;8916;47.086;15.920;2024-02-16T02:10:42;13.40;;;5.82;;
17595;SDS011;8916;47.086;15.920;2024-02-16T02:13:12;18.10;;;6.68;;
17595;SDS011;8916;47.086;15.920;2024-02-16T02:15:42;12.48;;;6.35;;
17595;SDS011;8916;47.086;15.920;2024-02-16T02:18:11;14.90;;;6.80;;
17595;SDS011;8916;47.086;15.920;2024-02-16T02:20:42;16.52;;;6.55;;
17595;SDS011;8916;47.086;15.920;2024-02-16T02:23:13;16.27;;;5.75;;
17595;SDS011;8916;47.086;15.920;2024-02-16T02:25:42;9.75;;;5.07;;
17595;SDS011;8916;47.086;15.920;2024-02-16T02:28:11;11.77;;;5.93;;
17595;SDS011;8916;47.086;15.920;2024-02-16T02:30:40;14.27;;;5.65;;
17595;SDS011;8916;47.086;15.920;2024-02-16T02:33:09;14.57;;;5.50;;
17595;SDS011;8916;47.086;15.920;2024-02-16T02:35:40;15.23;;;5.88;;
17595;SDS011;8916;47.086;15.920;2024-02-16T02:38:10;13.32;;;5.22;;
17595;SDS011;8916;47.086;15.920;2024-02-16T02:40:40;15.52;;;5.40;;
17595;SDS011;8916;47.086;15.920;2024-02-16T02:43:09;13.82;;;5.45;;
17595;SDS011;8916;47.086;15.920;2024-02-16T02:45:38;12.35;;;5.90;;
17595;SDS011;8916;47.086;15.920;2024-02-16T02:48:07;16.70;;;5.40;;
17595;SDS011;8916;47.086;15.920;2024-02-16T02:50:36;11.75;;;6.15;;
17595;SDS011;8916;47.086;15.920;2024-02-16T02:53:06;14.43;;;5.65;;
17595;SDS011;8916;47.086;15.920;2024-02-16T02:55:35;19.67;;;6.82;;
17595;SDS011;8916;47.086;15.920;2024-02-16T02:58:05;12.82;;;5.85;;
17595;SDS011;8916;47.086;15.920;2024-02-16T03:00:34;13.40;;;6.07;;
17595;SDS011;8916;47.086;15.920;2024-02-16T03:03:04;16.65;;;6.75;;
17595;SDS011;8916;47.086;15.920;2024-02-16T03:05:33;13.60;;;5.85;;
17595;SDS011;8916;47.086;15.920;2024-02-16T03:08:02;12.98;;;6.10;;
17595;SDS011;8916;47.086;15.920;2024-02-16T03:10:32;13.55;;;6.30;;
17595;SDS011;8916;47.086;15.920;2024-02-16T03:13:03;12.85;;;6.25;;
17595;SDS011;8916;47.086;15.920;2024-02-16T03:15:35;23.85;;;7.90;;
17595;SDS011;8916;47.086;15.920;2024-02-16T03:18:06;14.25;;;6.38;;
17595;SDS011;8916;47.086;15.920;2024-02-16T03:20:36;15.57;;;6.22;;
17595;SDS011;8916;47.086;15.920;2024-02-16T03:23:05;15.63;;;7.10;;
17595;SDS011;8916;47.086;15.920;2024-02-16T03:25:34;18.55;;;6.75;;
17595;SDS011;8916;47.086;15.920;2024-02-16T03:28:04;17.10;;;7.55;;
17595;SDS011;8916;47.086;15.920;2024-02-16T03:30:33;22.85;;;7.50;;
17595;SDS011;8916;47.086;15.920;2024-02-16T03:33:04;15.77;;;7.00;;
17595;SDS011;8916;47.086;15.920;2024-02-16T03:35:33;15.90;;;5.93;;
17595;SDS011;8916;47.086;15.920;2024-02-16T03:38:03;11.23;;;5.90;;
17595;SDS011;8916;47.086;15.920;2024-02-16T03:40:32;12.65;;;5.63;;
17595;SDS011;8916;47.086;15.920;2024-02-16T03:43:01;19.73;;;6.20;;
17595;SDS011;8916;47.086;15.920;2024-02-16T03:45:31;11.70;;;5.93;;
17595;SDS011;8916;47.086;15.920;2024-02-16T03:48:01;16.90;;;6.07;;
17595;SDS011;8916;47.086;15.920;2024-02-16T03:50:31;15.65;;;6.40;;
17595;SDS011;8916;47.086;15.920;2024-02-16T03:53:00;15.65;;;6.85;;
17595;SDS011;8916;47.086;15.920;2024-02-16T03:55:29;15.20;;;7.18;;
17595;SDS011;8916;47.086;15.920;2024-02-16T03:58:00;16.05;;;6.35;;
17595;SDS011;8916;47.086;15.920;2024-02-16T04:00:30;20.80;;;8.48;;
17595;SDS011;8916;47.086;15.920;2024-02-16T04:03:02;35.92;;;11.20;;
17595;SDS011;8916;47.086;15.920;2024-02-16T04:05:31;17.42;;;7.45;;
17595;SDS011;8916;47.086;15.920;2024-02-16T04:08:02;16.52;;;6.95;;
17595;SDS011;8916;47.086;15.920;2024-02-16T04:10:33;16.58;;;6.30;;
17595;SDS011;8916;47.086;15.920;2024-02-16T04:13:03;14.73;;;6.55;;
17595;SDS011;8916;47.086;15.920;2024-02-16T04:15:32;13.75;;;6.45;;
17595;SDS011;8916;47.086;15.920;2024-02-16T04:18:03;17.20;;;7.88;;
17595;SDS011;8916;47.086;15.920;2024-02-16T04:20:34;15.45;;;7.32;;
17595;SDS011;8916;47.086;15.920;2024-02-16T04:23:03;16.88;;;6.82;;
17595;SDS011;8916;47.086;15.920;2024-02-16T04:25:32;17.42;;;6.47;;
17595;SDS011;8916;47.086;15.920;2024-02-16T04:28:01;15.27;;;6.05;;
17595;SDS011;8916;47.086;15.920;2024-02-16T04:30:31;17.63;;;7.50;;
17595;SDS011;8916;47.086;15.920;2024-02-16T04:33:00;15.15;;;7.13;;
17595;SDS011;8916;47.086;15.920;2024-02-16T04:35:33;10.73;;;5.40;;
17595;SDS011;8916;47.086;15.920;2024-02-16T04:38:02;11.40;;;5.43;;
17595;SDS011;8916;47.086;15.920;2024-02-16T04:43:05;13.27;;;6.38;;
17595;SDS011;8916;47.086;15.920;2024-02-16T04:45:34;18.92;;;8.35;;
17595;SDS011;8916;47.086;15.920;2024-02-16T04:48:03;24.00;;;10.20;;
17595;SDS011;8916;47.086;15.920;2024-02-16T04:50:35;17.17;;;8.52;;
17595;SDS011;8916;47.086;15.920;2024-02-16T04:53:04;18.10;;;8.05;;
17595;SDS011;8916;47.086;15.920;2024-02-16T04:55:33;16.52;;;8.05;;
17595;SDS011;8916;47.086;15.920;2024-02-16T04:58:03;15.13;;;6.75;;
17595;SDS011;8916;47.086;15.920;2024-02-16T05:00:36;18.17;;;8.10;;
17595;SDS011;8916;47.086;15.920;2024-02-16T05:03:06;17.27;;;8.43;;
17595;SDS011;8916;47.086;15.920;2024-02-16T05:05:36;18.00;;;7.40;;
17595;SDS011;8916;47.086;15.920;2024-02-16T05:08:06;13.15;;;5.80;;
17595;SDS011;8916;47.086;15.920;2024-02-16T05:10:35;10.98;;;5.88;;
17595;SDS011;8916;47.086;15.920;2024-02-16T05:13:04;17.27;;;6.25;;
17595;SDS011;8916;47.086;15.920;2024-02-16T05:15:33;15.90;;;6.43;;
17595;SDS011;8916;47.086;15.920;2024-02-16T05:18:03;13.43;;;6.30;;
17595;SDS011;8916;47.086;15.920;2024-02-16T05:20:32;15.07;;;6.32;;
17595;SDS011;8916;47.086;15.920;2024-02-16T05:23:04;12.75;;;5.63;;
17595;SDS011;8916;47.086;15.920;2024-02-16T05:25:33;10.15;;;5.03;;
17595;SDS011;8916;47.086;15.920;2024-02-16T05:28:02;15.20;;;6.22;;
17595;SDS011;8916;47.086;15.920;2024-02-16T05:30:32;12.02;;;5.93;;
17595;SDS011;8916;47.086;15.920;2024-02-16T05:33:01;14.95;;;5.78;;
17595;SDS011;8916;47.086;15.920;2024-02-16T05:35:31;13.13;;;6.20;;
17595;SDS011;8916;47.086;15.920;2024-02-16T05:38:01;13.10;;;5.53;;
17595;SDS011;8916;47.086;15.920;2024-02-16T05:40:38;17.90;;;6.63;;
17595;SDS011;8916;47.086;15.920;2024-02-16T05:43:20;12.40;;;6.18;;
17595;SDS011;8916;47.086;15.920;2024-02-16T05:45:50;14.88;;;5.90;;
17595;SDS011;8916;47.086;15.920;2024-02-16T05:48:19;14.02;;;6.45;;
17595;SDS011;8916;47.086;15.920;2024-02-16T05:50:49;16.70;;;6.00;;
17595;SDS011;8916;47.086;15.920;2024-02-16T05:53:20;13.60;;;6.13;;
17595;SDS011;8916;47.086;15.920;2024-02-16T05:55:49;11.85;;;6.18;;
17595;SDS011;8916;47.086;15.920;2024-02-16T05:58:18;14.23;;;7.05;;
17595;SDS011;8916;47.086;15.920;2024-02-16T06:00:47;10.43;;;5.47;;
17595;SDS011;8916;47.086;15.920;2024-02-16T06:03:16;11.95;;;6.15;;
17595;SDS011;8916;47.086;15.920;2024-02-16T06:05:45;15.95;;;7.22;;
17595;SDS011;8916;47.086;15.920;2024-02-16T06:08:15;14.48;;;5.60;;
17595;SDS011;8916;47.086;15.920;2024-02-16T06:10:46;12.68;;;5.70;;
17595;SDS011;8916;47.086;15.920;2024-02-16T06:13:18;20.17;;;5.63;;
17595;SDS011;8916;47.086;15.920;2024-02-16T06:15:48;14.07;;;6.28;;
17595;SDS011;8916;47.086;15.920;2024-02-16T06:18:17;13.02;;;6.13;;
17595;SDS011;8916;47.086;15.920;2024-02-16T06:20:46;12.82;;;6.82;;
17595;SDS011;8916;47.086;15.920;2024-02-16T06:23:16;15.73;;;6.63;;
17595;SDS011;8916;47.086;15.920;2024-02-16T06:25:47;16.08;;;7.05;;
17595;SDS011;8916;47.086;15.920;2024-02-16T06:28:16;13.32;;;5.90;;
17595;SDS011;8916;47.086;15.920;2024-02-16T06:30:48;18.38;;;6.55;;
17595;SDS011;8916;47.086;15.920;2024-02-16T06:33:17;15.32;;;6.13;;
17595;SDS011;8916;47.086;15.920;2024-02-16T06:35:47;14.27;;;5.90;;
17595;SDS011;8916;47.086;15.920;2024-02-16T06:38:18;20.40;;;6.72;;
17595;SDS011;8916;47.086;15.920;2024-02-16T06:40:49;10.18;;;5.63;;
17595;SDS011;8916;47.086;15.920;2024-02-16T06:43:18;12.63;;;5.90;;
17595;SDS011;8916;47.086;15.920;2024-02-16T06:45:48;13.90;;;6.10;;
17595;SDS011;8916;47.086;15.920;2024-02-16T06:48:18;13.95;;;6.80;;
17595;SDS011;8916;47.086;15.920;2024-02-16T06:50:48;15.25;;;6.47;;
17595;SDS011;8916;47.086;15.920;2024-02-16T06:53:17;14.07;;;5.88;;
17595;SDS011;8916;47.086;15.920;2024-02-16T06:55:46;11.85;;;5.63;;
17595;SDS011;8916;47.086;15.920;2024-02-16T06:58:18;13.90;;;6.60;;
17595;SDS011;8916;47.086;15.920;2024-02-16T07:00:48;11.80;;;5.43;;
17595;SDS011;8916;47.086;15.920;2024-02-16T07:03:19;17.08;;;6.10;;
17595;SDS011;8916;47.086;15.920;2024-02-16T07:05:48;9.25;;;5.22;;
17595;SDS011;8916;47.086;15.920;2024-02-16T07:08:18;12.30;;;5.45;;
17595;SDS011;8916;47.086;15.920;2024-02-16T07:10:50;12.10;;;5.88;;
17595;SDS011;8916;47.086;15.920;2024-02-16T07:13:21;11.82;;;5.43;;
17595;SDS011;8916;47.086;15.920;2024-02-16T07:15:51;11.38;;;4.95;;
17595;SDS011;8916;47.086;15.920;2024-02-16T07:18:21;12.32;;;6.47;;
17595;SDS011;8916;47.086;15.920;2024-02-16T07:20:51;15.25;;;5.55;;
17595;SDS011;8916;47.086;15.920;2024-02-16T07:23:20;7.45;;;4.78;;
17595;SDS011;8916;47.086;15.920;2024-02-16T07:25:51;11.52;;;4.88;;
17595;SDS011;8916;47.086;15.920;2024-02-16T07:28:23;11.80;;;5.13;;
17595;SDS011;8916;47.086;15.920;2024-02-16T07:30:54;13.50;;;5.28;;
17595;SDS011;8916;47.086;15.920;2024-02-16T07:33:23;11.13;;;5.13;;
17595;SDS011;8916;47.086;15.920;2024-02-16T07:35:56;10.60;;;5.65;;
17595;SDS011;8916;47.086;15.920;2024-02-16T07:38:25;12.30;;;5.18;;
17595;SDS011;8916;47.086;15.920;2024-02-16T07:40:57;9.10;;;5.10;;
17595;SDS011;8916;47.086;15.920;2024-02-16T07:43:26;9.13;;;4.78;;
17595;SDS011;8916;47.086;15.920;2024-02-16T07:45:56;9.57;;;5.28;;
17595;SDS011;8916;47.086;15.920;2024-02-16T07:48:26;12.63;;;5.88;;
17595;SDS011;8916;47.086;15.920;2024-02-16T07:50:56;14.18;;;5.57;;
17595;SDS011;8916;47.086;15.920;2024-02-16T07:53:30;15.43;;;5.65;;
17595;SDS011;8916;47.086;15.920;2024-02-16T07:56:02;14.00;;;5.60;;
17595;SDS011;8916;47.086;15.920;2024-02-16T07:58:34;12.85;;;5.85;;
17595;SDS011;8916;47.086;15.920;2024-02-16T08:01:05;14.20;;;6.38;;
17595;SDS011;8916;47.086;15.920;2024-02-16T08:03:34;13.07;;;6.18;;
17595;SDS011;8916;47.086;15.920;2024-02-16T08:06:04;12.80;;;5.85;;
17595;SDS011;8916;47.086;15.920;2024-02-16T08:08:34;11.80;;;6.15;;
17595;SDS011;8916;47.086;15.920;2024-02-16T08:11:05;11.25;;;6.00;;
17595;SDS011;8916;47.086;15.920;2024-02-16T08:13:34;14.48;;;6.13;;
17595;SDS011;8916;47.086;15.920;2024-02-16T08:16:04;9.57;;;5.43;;
17595;SDS011;8916;47.086;15.920;2024-02-16T08:18:34;12.70;;;5.00;;
17595;SDS011;8916;47.086;15.920;2024-02-16T08:21:04;12.02;;;5.68;;
17595;SDS011;8916;47.086;15.920;2024-02-16T08:23:33;11.25;;;5.65;;
17595;SDS011;8916;47.086;15.920;2024-02-16T08:26:02;12.60;;;5.47;;
17595;SDS011;8916;47.086;15.920;2024-02-16T08:28:33;10.07;;;5.43;;
17595;SDS011;8916;47.086;15.920;2024-02-16T08:31:03;13.07;;;6.20;;
17595;SDS011;8916;47.086;15.920;2024-02-16T08:33:32;11.80;;;5.43;;
17595;SDS011;8916;47.086;15.920;2024-02-16T08:36:06;12.05;;;6.75;;
17595;SDS011;8916;47.086;15.920;2024-02-16T08:38:36;10.30;;;5.53;;
17595;SDS011;8916;47.086;15.920;2024-02-16T08:41:07;12.70;;;5.88;;
17595;SDS011;8916;47.086;15.920;2024-02-16T08:43:37;9.55;;;5.57;;
17595;SDS011;8916;47.086;15.920;2024-02-16T08:46:07;11.27;;;5.20;;
17595;SDS011;8916;47.086;15.920;2024-02-16T08:48:37;10.75;;;5.85;;
17595;SDS011;8916;47.086;15.920;2024-02-16T08:51:06;11.18;;;5.97;;
17595;SDS011;8916;47.086;15.920;2024-02-16T08:53:36;11.25;;;5.43;;
17595;SDS011;8916;47.086;15.920;2024-02-16T08:56:10;11.73;;;5.55;;
17595;SDS011;8916;47.086;15.920;2024-02-16T08:58:39;14.60;;;6.40;;
17595;SDS011;8916;47.086;15.920;2024-02-16T09:01:09;14.52;;;6.65;;
17595;SDS011;8916;47.086;15.920;2024-02-16T09:03:38;13.32;;;6.60;;
17595;SDS011;8916;47.086;15.920;2024-02-16T09:06:08;17.30;;;6.30;;
17595;SDS011;8916;47.086;15.920;2024-02-16T09:08:38;14.35;;;6.55;;
17595;SDS011;8916;47.086;15.920;2024-02-16T09:11:07;12.88;;;6.60;;
17595;SDS011;8916;47.086;15.920;2024-02-16T09:13:39;12.40;;;6.43;;
17595;SDS011;8916;47.086;15.920;2024-02-16T09:16:09;13.75;;;6.93;;
17595;SDS011;8916;47.086;15.920;2024-02-16T09:18:38;15.52;;;7.38;;
17595;SDS011;8916;47.086;15.920;2024-02-16T09:21:08;14.82;;;7.60;;
17595;SDS011;8916;47.086;15.920;2024-02-16T09:23:39;13.05;;;7.55;;
17595;SDS011;8916;47.086;15.920;2024-02-16T09:26:09;15.65;;;7.68;;
17595;SDS011;8916;47.086;15.920;2024-02-16T09:28:41;16.40;;;7.57;;
17595;SDS011;8916;47.086;15.920;2024-02-16T09:31:13;14.57;;;7.75;;
17595;SDS011;8916;47.086;15.920;2024-02-16T09:33:43;15.10;;;7.70;;
17595;SDS011;8916;47.086;15.920;2024-02-16T09:36:12;13.18;;;7.85;;
17595;SDS011;8916;47.086;15.920;2024-02-16T09:38:42;16.10;;;6.70;;
17595;SDS011;8916;47.086;15.920;2024-02-16T09:41:11;18.73;;;8.68;;
17595;SDS011;8916;47.086;15.920;2024-02-16T09:43:44;13.43;;;8.23;;
17595;SDS011;8916;47.086;15.920;2024-02-16T09:46:14;16.05;;;8.02;;
17595;SDS011;8916;47.086;15.920;2024-02-16T09:48:46;19.02;;;8.25;;
17595;SDS011;8916;47.086;15.920;2024-02-16T09:51:20;23.83;;;8.55;;
17595;SDS011;8916;47.086;15.920;2024-02-16T09:53:50;15.50;;;8.43;;
17595;SDS011;8916;47.086;15.920;2024-02-16T09:56:26;15.88;;;8.00;;
17595;SDS011;8916;47.086;15.920;2024-02-16T09:58:57;12.82;;;6.68;;
17595;SDS011;8916;47.086;15.920;2024-02-16T10:01:26;14.63;;;8.00;;
17595;SDS011;8916;47.086;15.920;2024-02-16T10:03:59;12.50;;;7.50;;
17595;SDS011;8916;47.086;15.920;2024-02-16T10:06:45;14.90;;;8.68;;
17595;SDS011;8916;47.086;15.920;2024-02-16T10:09:23;17.38;;;8.10;;
17595;SDS011;8916;47.086;15.920;2024-02-16T10:11:52;13.43;;;8.00;;
17595;SDS011;8916;47.086;15.920;2024-02-16T10:14:23;15.10;;;7.70;;
17595;SDS011;8916;47.086;15.920;2024-02-16T10:17:02;14.10;;;8.38;;
17595;SDS011;8916;47.086;15.920;2024-02-16T10:19:34;16.85;;;8.50;;
17595;SDS011;8916;47.086;15.920;2024-02-16T10:22:09;15.27;;;8.07;;
17595;SDS011;8916;47.086;15.920;2024-02-16T10:24:40;13.02;;;7.50;;
17595;SDS011;8916;47.086;15.920;2024-02-16T10:27:14;14.90;;;7.88;;
17595;SDS011;8916;47.086;15.920;2024-02-16T10:29:48;19.73;;;8.80;;
17595;SDS011;8916;47.086;15.920;2024-02-16T10:32:19;13.93;;;7.97;;
17595;SDS011;8916;47.086;15.920;2024-02-16T10:34:49;13.77;;;7.38;;
17595;SDS011;8916;47.086;15.920;2024-02-16T10:37:21;16.17;;;7.97;;
17595;SDS011;8916;47.086;15.920;2024-02-16T10:39:51;16.10;;;8.15;;
17595;SDS011;8916;47.086;15.920;2024-02-16T10:42:25;21.70;;;8.75;;
17595;SDS011;8916;47.086;15.920;2024-02-16T10:44:58;15.35;;;8.52;;
17595;SDS011;8916;47.086;15.920;2024-02-16T10:47:29;13.52;;;7.88;;
17595;SDS011;8916;47.086;15.920;2024-02-16T10:50:00;16.35;;;7.78;;
17595;SDS011;8916;47.086;15.920;2024-02-16T10:52:32;13.32;;;7.43;;
17595;SDS011;8916;47.086;15.920;2024-02-16T10:55:03;17.88;;;8.38;;
17595;SDS011;8916;47.086;15.920;2024-02-16T10:57:36;15.23;;;8.68;;
17595;SDS011;8916;47.086;15.920;2024-02-16T11:00:09;18.23;;;8.57;;
17595;SDS011;8916;47.086;15.920;2024-02-16T11:02:52;14.63;;;8.27;;
17595;SDS011;8916;47.086;15.920;2024-02-16T11:05:33;20.67;;;8.40;;
17595;SDS011;8916;47.086;15.920;2024-02-16T11:08:04;14.73;;;7.55;;
17595;SDS011;8916;47.086;15.920;2024-02-16T11:10:40;13.67;;;7.37;;
17595;SDS011;8916;47.086;15.920;2024-02-16T11:13:10;12.52;;;7.40;;
17595;SDS011;8916;47.086;15.920;2024-02-16T11:15:41;12.93;;;7.05;;
17595;SDS011;8916;47.086;15.920;2024-02-16T11:18:10;12.38;;;7.70;;
17595;SDS011;8916;47.086;15.920;2024-02-16T11:20:40;14.75;;;7.85;;
17595;SDS011;8916;47.086;15.920;2024-02-16T11:23:10;11.55;;;7.25;;
17595;SDS011;8916;47.086;15.920;2024-02-16T11:25:49;16.45;;;8.05;;
17595;SDS011;8916;47.086;15.920;2024-02-16T11:28:19;13.77;;;7.82;;
17595;SDS011;8916;47.086;15.920;2024-02-16T11:30:50;15.27;;;7.72;;
17595;SDS011;8916;47.086;15.920;2024-02-16T11:33:24;12.82;;;7.65;;
17595;SDS011;8916;47.086;15.920;2024-02-16T11:35:55;14.85;;;7.53;;
17595;SDS011;8916;47.086;15.920;2024-02-16T11:38:26;13.70;;;7.45;;
17595;SDS011;8916;47.086;15.920;2024-02-16T11:40:56;12.95;;;7.63;;
17595;SDS011;8916;47.086;15.920;2024-02-16T11:43:26;15.15;;;7.13;;
17595;SDS011;8916;47.086;15.920;2024-02-16T11:45:56;13.68;;;7.40;;
17595;SDS011;8916;47.086;15.920;2024-02-16T11:48:26;15.63;;;7.18;;
17595;SDS011;8916;47.086;15.920;2024-02-16T11:50:59;17.40;;;7.22;;
17595;SDS011;8916;47.086;15.920;2024-02-16T11:53:29;10.55;;;6.93;;
17595;SDS011;8916;47.086;15.920;2024-02-16T11:55:59;10.95;;;7.03;;
17595;SDS011;8916;47.086;15.920;2024-02-16T11:58:29;14.57;;;7.13;;
17595;SDS011;8916;47.086;15.920;2024-02-16T12:01:00;14.13;;;7.38;;
17595;SDS011;8916;47.086;15.920;2024-02-16T12:03:31;11.10;;;6.70;;
17595;SDS011;8916;47.086;15.920;2024-02-16T12:06:00;13.45;;;6.75;;
17595;SDS011;8916;47.086;15.920;2024-02-16T12:08:31;11.57;;;6.32;;
17595;SDS011;8916;47.086;15.920;2024-02-16T12:11:02;13.13;;;6.60;;
17595;SDS011;8916;47.086;15.920;2024-02-16T12:13:33;10.75;;;6.15;;
17595;SDS011;8916;47.086;15.920;2024-02-16T12:16:04;8.73;;;5.88;;
17595;SDS011;8916;47.086;15.920;2024-02-16T12:18:35;9.48;;;5.60;;
17595;SDS011;8916;47.086;15.920;2024-02-16T12:21:05;10.68;;;6.05;;
17595;SDS011;8916;47.086;15.920;2024-02-16T12:23:36;8.82;;;5.28;;
17595;SDS011;8916;47.086;15.920;2024-02-16T12:26:06;11.25;;;5.45;;
17595;SDS011;8916;47.086;15.920;2024-02-16T12:28:35;13.00;;;5.55;;
17595;SDS011;8916;47.086;15.920;2024-02-16T12:31:06;9.88;;;5.53;;
17595;SDS011;8916;47.086;15.920;2024-02-16T12:33:35;10.10;;;4.97;;
17595;SDS011;8916;47.086;15.920;2024-02-16T12:36:05;7.80;;;4.85;;
17595;SDS011;8916;47.086;15.920;2024-02-16T12:38:34;8.52;;;4.97;;
17595;SDS011;8916;47.086;15.920;2024-02-16T12:41:05;10.18;;;4.57;;
17595;SDS011;8916;47.086;15.920;2024-02-16T12:43:34;7.38;;;4.45;;
17595;SDS011;8916;47.086;15.920;2024-02-16T12:46:03;7.38;;;4.00;;
17595;SDS011;8916;47.086;15.920;2024-02-16T12:48:34;7.00;;;4.38;;
17595;SDS011;8916;47.086;15.920;2024-02-16T12:51:03;5.60;;;3.60;;
17595;SDS011;8916;47.086;15.920;2024-02-16T12:53:33;7.47;;;3.53;;
17595;SDS011;8916;47.086;15.920;2024-02-16T12:56:07;6.65;;;3.67;;
17595;SDS011;8916;47.086;15.920;2024-02-16T12:58:37;5.20;;;3.35;;
17595;SDS011;8916;47.086;15.920;2024-02-16T13:01:08;6.47;;;3.90;;
17595;SDS011;8916;47.086;15.920;2024-02-16T13:03:52;6.00;;;3.40;;
17595;SDS011;8916;47.086;15.920;2024-02-16T13:06:21;4.82;;;2.90;;
17595;SDS011;8916;47.086;15.920;2024-02-16T13:08:55;4.70;;;3.05;;
17595;SDS011;8916;47.086;15.920;2024-02-16T13:11:24;4.45;;;3.17;;
17595;SDS011;8916;47.086;15.920;2024-02-16T13:13:54;5.00;;;3.35;;
17595;SDS011;8916;47.086;15.920;2024-02-16T13:16:24;5.22;;;2.95;;
17595;SDS011;8916;47.086;15.920;2024-02-16T13:18:54;3.97;;;2.90;;
17595;SDS011;8916;47.086;15.920;2024-02-16T13:21:23;4.00;;;2.63;;
17595;SDS011;8916;47.086;15.920;2024-02-16T13:23:52;5.75;;;3.10;;
17595;SDS011;8916;47.086;15.920;2024-02-16T13:26:21;5.07;;;3.05;;
17595;SDS011;8916;47.086;15.920;2024-02-16T13:28:50;5.75;;;3.10;;
17595;SDS011;8916;47.086;15.920;2024-02-16T13:31:22;4.30;;;2.65;;
17595;SDS011;8916;47.086;15.920;2024-02-16T13:33:53;4.00;;;2.70;;
17595;SDS011;8916;47.086;15.920;2024-02-16T13:36:22;3.92;;;2.70;;
17595;SDS011;8916;47.086;15.920;2024-02-16T13:38:51;6.38;;;2.80;;
17595;SDS011;8916;47.086;15.920;2024-02-16T13:41:20;5.93;;;2.63;;
17595;SDS011;8916;47.086;15.920;2024-02-16T13:43:49;4.32;;;2.90;;
17595;SDS011;8916;47.086;15.920;2024-02-16T13:46:20;4.35;;;2.30;;
17595;SDS011;8916;47.086;15.920;2024-02-16T13:48:50;3.58;;;2.30;;
17595;SDS011;8916;47.086;15.920;2024-02-16T13:51:20;4.35;;;2.78;;
17595;SDS011;8916;47.086;15.920;2024-02-16T13:53:50;5.32;;;2.78;;
17595;SDS011;8916;47.086;15.920;2024-02-16T13:56:20;4.38;;;2.70;;
17595;SDS011;8916;47.086;15.920;2024-02-16T13:58:49;5.13;;;2.80;;
17595;SDS011;8916;47.086;15.920;2024-02-16T14:01:18;3.15;;;2.38;;
17595;SDS011;8916;47.086;15.920;2024-02-16T14:03:48;4.22;;;2.25;;
17595;SDS011;8916;47.086;15.920;2024-02-16T14:06:20;4.68;;;2.53;;
17595;SDS011;8916;47.086;15.920;2024-02-16T14:08:51;3.83;;;2.63;;
17595;SDS011;8916;47.086;15.920;2024-02-16T14:11:20;4.72;;;2.80;;
17595;SDS011;8916;47.086;15.920;2024-02-16T14:13:49;6.38;;;3.13;;
17595;SDS011;8916;47.086;15.920;2024-02-16T14:16:19;3.72;;;2.65;;
17595;SDS011;8916;47.086;15.920;2024-02-16T14:18:48;5.13;;;3.08;;
17595;SDS011;8916;47.086;15.920;2024-02-16T14:21:21;5.93;;;2.67;;
17595;SDS011;8916;47.086;15.920;2024-02-16T14:23:53;4.35;;;3.03;;
17595;SDS011;8916;47.086;15.920;2024-02-16T14:26:22;4.30;;;3.25;;
17595;SDS011;8916;47.086;15.920;2024-02-16T14:28:51;5.68;;;3.17;;
17595;SDS011;8916;47.086;15.920;2024-02-16T14:31:22;9.65;;;3.30;;
17595;SDS011;8916;47.086;15.920;2024-02-16T14:33:51;5.70;;;3.00;;
17595;SDS011;8916;47.086;15.920;2024-02-16T14:36:22;4.97;;;3.20;;
17595;SDS011;8916;47.086;15.920;2024-02-16T14:38:51;4.63;;;3.25;;
17595;SDS011;8916;47.086;15.920;2024-02-16T14:41:21;7.63;;;3.60;;
17595;SDS011;8916;47.086;15.920;2024-02-16T14:43:51;5.05;;;3.28;;
17595;SDS011;8916;47.086;15.920;2024-02-16T14:46:24;6.85;;;3.63;;
17595;SDS011;8916;47.086;15.920;2024-02-16T14:48:54;5.05;;;3.60;;
17595;SDS011;8916;47.086;15.920;2024-02-16T14:51:25;5.65;;;3.78;;
17595;SDS011;8916;47.086;15.920;2024-02-16T14:53:54;7.28;;;4.20;;
17595;SDS011;8916;47.086;15.920;2024-02-16T14:56:24;6.45;;;3.65;;